Time;durP1;ratioP1;P1;durP2;ratioP2;P2;SDS_P1;SDS_P2;PMS_P1;PMS_P2;Temp;Humidity;BMP_temperature;BMP_pressure;BME280_temperature;BME280_humidity;BME280_pressure;Samples;Min_cycle;Max_cycle;Signal;HPM_P1;HPM_P2
2023/09/13 16:27:39;;;;;;;4.07;1.70;;;;;;;30.97;31.52;100031.53;5088618;27;21095;-76
2023/09/13 16:30:08;;;;;;;14.48;2.58;;;;;;;30.65;31.99;100040.91;5087007;28;20197;-75
2023/09/13 16:32:35;;;;;;;7.68;1.65;;;;;;;30.26;32.00;100036.41;5087920;28;20233;-76
2023/09/13 16:35:03;;;;;;;2.05;0.90;;;;;;;29.89;32.37;100038.00;5080811;28;20213;-74
2023/09/13 16:37:30;;;;;;;5.78;1.15;;;;;;;29.62;32.36;100042.41;5074699;28;20283;-74
2023/09/13 16:39:58;;;;;;;15.32;2.17;;;;;;;29.39;32.64;100043.00;5083539;28;20212;-75
2023/09/13 16:42:25;;;;;;;5.07;1.13;;;;;;;29.14;33.05;100042.78;5032304;28;20210;-75
2023/09/13 16:44:53;;;;;;;3.08;1.23;;;;;;;29.01;33.08;100032.84;5087579;28;20205;-74
2023/09/13 16:47:20;;;;;;;9.40;2.17;;;;;;;28.77;33.28;100031.69;5073962;28;20217;-75
2023/09/13 16:49:46;;;;;;;4.00;1.25;;;;;;;28.65;33.80;100028.84;5086992;28;20220;-75
2023/09/13 16:52:14;;;;;;;9.30;2.17;;;;;;;28.33;33.81;100009.44;5082903;28;20552;-76
2023/09/13 16:54:41;;;;;;;3.10;1.90;;;;;;;28.27;34.31;100017.81;5040053;28;20198;-75
2023/09/13 16:57:08;;;;;;;8.20;1.48;;;;;;;28.26;34.15;100040.09;5071326;28;20588;-76
2023/09/13 16:59:35;;;;;;;0.70;0.70;;;;;;;28.14;34.39;100036.34;5071141;28;20687;-77
2023/09/13 17:02:03;;;;;;;8.98;1.55;;;;;;;28.06;35.01;100044.75;5073290;28;20209;-75
2023/09/13 17:04:30;;;;;;;4.95;1.08;;;;;;;27.94;35.18;100040.09;5068085;28;20663;-76
2023/09/13 17:06:57;;;;;;;3.38;1.17;;;;;;;27.84;35.72;100046.91;5074441;28;20210;-76
2023/09/13 17:09:25;;;;;;;0.95;0.95;;;;;;;27.65;35.83;100016.91;5079107;28;20198;-74
2023/09/13 17:11:53;;;;;;;9.13;1.65;;;;;;;27.74;36.18;100048.38;5069080;28;20237;-76
2023/09/13 17:14:19;;;;;;;6.05;1.27;;;;;;;27.69;36.08;100047.75;5076518;28;20279;-75
2023/09/13 17:16:46;;;;;;;2.83;1.23;;;;;;;27.58;35.84;100037.69;5083019;28;20234;-77
2023/09/13 17:19:15;;;;;;;0.77;0.77;;;;;;;27.65;36.17;100048.88;5080250;28;20206;-74
2023/09/13 17:21:41;;;;;;;8.63;1.45;;;;;;;27.02;36.42;99944.06;5048093;28;20210;-73
2023/09/13 17:24:08;;;;;;;2.40;0.80;;;;;;;27.40;36.61;100019.16;5081123;28;20197;-73
2023/09/13 17:26:35;;;;;;;7.57;1.38;;;;;;;27.58;37.14;100055.50;5053697;28;20217;-72
2023/09/13 17:29:03;;;;;;;1.08;0.70;;;;;;;27.58;36.72;100061.69;5075183;28;20220;-75
2023/09/13 17:31:30;;;;;;;12.30;1.75;;;;;;;27.60;36.91;100066.94;5086538;28;20293;-80
2023/09/13 17:33:56;;;;;;;9.68;1.65;;;;;;;27.64;37.15;100068.50;5086775;28;20244;-75
2023/09/13 17:36:25;;;;;;;4.47;0.98;;;;;;;27.65;37.34;100059.53;5086164;28;20306;-76
2023/09/13 17:38:52;;;;;;;6.93;1.48;;;;;;;27.54;37.93;100069.91;5073142;28;20294;-77
2023/09/13 17:41:19;;;;;;;4.03;1.23;;;;;;;27.54;37.93;100072.56;5073314;28;20294;-80
2023/09/13 17:43:45;;;;;;;0.98;0.75;;;;;;;27.35;38.24;100056.72;5066252;28;20203;-75
2023/09/13 17:46:12;;;;;;;11.18;1.83;;;;;;;27.42;38.25;100062.59;5072738;28;20214;-74
2023/09/13 17:48:39;;;;;;;0.90;0.90;;;;;;;27.38;38.66;100067.22;5073346;28;20218;-76
2023/09/13 17:51:05;;;;;;;0.60;0.60;;;;;;;27.23;38.75;100043.19;5068093;28;20202;-77
2023/09/13 17:53:34;;;;;;;14.80;1.98;;;;;;;27.42;39.16;100062.59;5073006;28;20199;-76
2023/09/13 17:56:03;;;;;;;17.17;2.28;;;;;;;27.33;39.20;100063.06;5053849;28;20245;-76
2023/09/13 17:58:29;;;;;;;0.60;0.60;;;;;;;27.23;39.81;100056.53;5069842;28;20325;-76
2023/09/13 18:00:57;;;;;;;3.03;1.10;;;;;;;27.09;40.39;100047.47;5034087;28;20203;-76
2023/09/13 18:03:23;;;;;;;9.50;2.05;;;;;;;27.11;40.58;100060.72;5068157;28;20384;-76
2023/09/13 18:05:50;;;;;;;1.58;1.42;;;;;;;27.11;40.66;100064.22;5037706;28;20205;-77
2023/09/13 18:08:17;;;;;;;6.95;1.48;;;;;;;27.11;41.60;100069.53;5029037;28;20693;-75
2023/09/13 18:10:45;;;;;;;9.75;1.60;;;;;;;27.18;41.66;100075.44;5063214;28;20203;-74
2023/09/13 18:13:12;;;;;;;3.67;1.83;;;;;;;26.96;41.68;100053.53;5065858;28;20615;-76
2023/09/13 18:15:39;;;;;;;7.43;1.40;;;;;;;26.89;42.01;100037.03;5063988;28;20289;-74
2023/09/13 18:18:06;;;;;;;11.70;1.83;;;;;;;26.99;42.19;100069.34;5068063;28;20222;-77
2023/09/13 18:20:33;;;;;;;8.27;1.50;;;;;;;26.90;42.40;100061.81;5058582;28;20199;-73
2023/09/13 18:22:59;;;;;;;10.98;2.10;;;;;;;27.14;42.71;100065.00;5057351;28;20202;-73
2023/09/13 18:25:29;;;;;;;2.47;1.35;;;;;;;27.25;42.73;100065.31;5054337;28;20210;-73
2023/09/13 18:27:57;;;;;;;13.25;1.80;;;;;;;27.32;43.01;100064.03;5068157;28;20206;-76
2023/09/13 18:30:24;;;;;;;5.57;1.60;;;;;;;27.21;43.66;100064.59;5064779;28;20200;-75
2023/09/13 18:32:51;;;;;;;3.88;1.17;;;;;;;27.03;44.02;100053.13;5063898;28;20771;-75
2023/09/13 18:35:19;;;;;;;3.50;1.15;;;;;;;26.98;44.18;100057.81;5057345;28;20202;-73
2023/09/13 18:37:45;;;;;;;3.17;0.98;;;;;;;26.90;44.63;100057.34;5064268;28;20234;-76
2023/09/13 18:40:12;;;;;;;2.03;0.90;;;;;;;26.90;44.61;100052.03;5064533;28;20601;-76
2023/09/13 18:42:39;;;;;;;6.38;1.70;;;;;;;27.00;44.59;100055.09;5068489;28;20210;-81
2023/09/13 18:45:09;;;;;;;7.03;1.55;;;;;;;27.01;44.79;100052.34;5062924;28;20211;-76
2023/09/13 18:47:36;;;;;;;10.98;1.80;;;;;;;26.93;44.63;100053.69;5066338;28;20268;-76
2023/09/13 18:50:03;;;;;;;9.50;1.70;;;;;;;26.41;45.00;99978.34;5065217;28;20249;-76
2023/09/13 18:52:31;;;;;;;6.53;1.40;;;;;;;26.81;44.71;100049.84;5071718;28;20203;-72
2023/09/13 18:54:57;;;;;;;1.95;1.40;;;;;;;26.68;44.43;100035.47;5070393;28;20211;-74
2023/09/13 18:57:24;;;;;;;3.72;0.95;;;;;;;26.65;44.06;100048.06;5023169;28;20232;-74
2023/09/13 18:59:51;;;;;;;1.55;1.40;;;;;;;26.67;44.05;100041.72;5060685;28;20198;-76
2023/09/13 19:02:21;;;;;;;2.53;0.95;;;;;;;26.68;43.81;100042.59;5059975;28;20209;-75
2023/09/13 19:04:48;;;;;;;3.45;0.90;;;;;;;26.53;43.47;100038.91;5061192;28;20205;-75
2023/09/13 19:07:15;;;;;;;8.55;1.77;;;;;;;26.55;43.07;100043.19;5062212;28;20203;-75
2023/09/13 19:09:42;;;;;;;8.65;1.77;;;;;;;26.62;42.57;100049.06;5064834;28;20209;-74
2023/09/13 19:12:09;;;;;;;12.07;1.75;;;;;;;26.47;43.30;100044.53;5067364;28;20203;-74
2023/09/13 19:14:35;;;;;;;2.30;0.80;;;;;;;26.46;43.47;100045.47;5062493;28;20277;-74
2023/09/13 19:17:03;;;;;;;7.55;4.10;;;;;;;26.45;43.61;100038.44;5063978;28;20222;-75
2023/09/13 19:19:31;;;;;;;3.97;1.05;;;;;;;26.45;43.47;100046.41;5063444;28;20280;-75
2023/09/13 19:21:58;;;;;;;10.13;1.98;;;;;;;26.46;43.19;100048.13;5069096;28;20290;-73
2023/09/13 19:24:25;;;;;;;3.70;1.08;;;;;;;26.31;43.26;100032.94;5065372;28;20211;-75
2023/09/13 19:26:52;;;;;;;5.10;1.08;;;;;;;26.50;42.77;100055.03;5051900;28;20619;-76
2023/09/13 19:29:18;;;;;;;1.13;0.93;;;;;;;26.46;42.70;100053.44;5051670;28;20195;-75
2023/09/13 19:31:45;;;;;;;7.50;1.33;;;;;;;26.53;42.83;100060.19;5053102;28;20211;-74
2023/09/13 19:34:12;;;;;;;1.08;0.80;;;;;;;26.51;43.63;100054.94;5060668;28;20210;-75
2023/09/13 19:36:40;;;;;;;5.50;1.27;;;;;;;26.54;43.10;100056.59;5062282;28;20233;-76
2023/09/13 19:39:07;;;;;;;1.13;1.13;;;;;;;26.55;43.02;100063.59;5055692;28;20657;-77
2023/09/13 19:41:34;;;;;;;4.40;1.17;;;;;;;26.53;42.29;100038.91;5034552;28;20198;-75
2023/09/13 19:44:01;;;;;;;9.45;1.65;;;;;;;26.39;42.23;100030.78;5054700;28;20203;-75
2023/09/13 19:46:28;;;;;;;1.70;1.27;;;;;;;26.61;42.33;100058.00;5052575;28;20210;-76
2023/09/13 19:48:55;;;;;;;3.80;1.33;;;;;;;26.25;42.81;100006.69;5049875;28;20203;-75
2023/09/13 19:51:22;;;;;;;4.65;1.15;;;;;;;26.45;42.56;100057.03;5054481;28;20262;-75
2023/09/13 19:53:51;;;;;;;3.58;1.33;;;;;;;26.46;42.79;100037.50;5050038;28;20593;-77
2023/09/13 19:56:18;;;;;;;5.05;1.20;;;;;;;26.53;42.57;100065.50;5051962;28;20215;-75
2023/09/13 19:58:46;;;;;;;2.03;1.10;;;;;;;26.53;42.24;100054.88;5022089;28;20257;-76
2023/09/13 20:01:13;;;;;;;5.57;1.65;;;;;;;26.29;42.48;100029.50;5053853;28;20210;-75
2023/09/13 20:03:42;;;;;;;3.40;1.10;;;;;;;26.52;41.99;100058.44;5049694;28;20599;-76
2023/09/13 20:06:11;;;;;;;10.43;1.58;;;;;;;26.47;42.38;100063.16;5057424;28;20201;-76
2023/09/13 20:08:38;;;;;;;4.25;1.23;;;;;;;26.37;42.52;100059.22;5049998;28;20238;-76
2023/09/13 20:11:06;;;;;;;7.38;1.95;;;;;;;26.45;42.23;100057.03;5055068;28;20617;-76
2023/09/13 20:13:33;;;;;;;2.00;0.82;;;;;;;25.90;42.30;99985.31;5052078;28;20206;-77
2023/09/13 20:16:00;;;;;;;10.25;2.15;;;;;;;26.34;42.76;100054.06;5056743;28;20203;-76
2023/09/13 20:18:26;;;;;;;28.80;4.28;;;;;;;26.03;42.21;100010.38;5049531;28;20713;-75
2023/09/13 20:20:57;;;;;;;2.65;1.15;;;;;;;26.36;42.46;100061.00;5056984;28;20207;-77
2023/09/13 20:23:25;;;;;;;3.70;1.20;;;;;;;26.25;42.76;100071.34;5053408;28;20203;-76
2023/09/13 20:25:52;;;;;;;6.20;1.48;;;;;;;26.17;42.59;100067.28;5055128;28;20313;-73
2023/09/13 20:28:22;;;;;;;2.97;1.00;;;;;;;26.19;42.64;100065.44;5049346;28;20261;-74
2023/09/13 20:30:48;;;;;;;2.88;1.02;;;;;;;25.99;42.86;100043.34;5060445;28;20210;-76
2023/09/13 20:33:16;;;;;;;8.45;2.45;;;;;;;26.08;42.91;100064.13;5055822;28;20199;-78
2023/09/13 20:35:45;;;;;;;5.35;1.17;;;;;;;26.07;42.74;100062.44;5051898;28;20211;-76
2023/09/13 20:38:12;;;;;;;4.10;1.13;;;;;;;26.06;42.73;100065.16;5049274;28;20587;-75
2023/09/13 20:40:39;;;;;;;5.90;1.23;;;;;;;25.75;43.04;100036.56;5055093;28;20211;-77
2023/09/13 20:43:05;;;;;;;7.68;1.35;;;;;;;25.97;43.08;100069.13;5058653;28;20222;-75
2023/09/13 20:45:33;;;;;;;8.73;2.70;;;;;;;25.91;43.01;100058.78;5062172;28;20203;-77
2023/09/13 20:48:00;;;;;;;5.13;1.40;;;;;;;25.89;42.85;100068.66;5067752;28;20211;-76
2023/09/13 20:50:27;;;;;;;4.25;0.95;;;;;;;25.93;42.83;100070.22;5065681;28;20213;-76
2023/09/13 20:52:54;;;;;;;2.10;1.13;;;;;;;25.91;43.15;100072.06;5069832;28;20260;-76
2023/09/13 20:55:22;;;;;;;4.97;1.35;;;;;;;25.91;43.14;100069.41;5065116;28;20211;-77
2023/09/13 20:57:49;;;;;;;3.75;1.10;;;;;;;25.81;43.12;100062.81;5053734;28;20233;-76
2023/09/13 21:00:16;;;;;;;7.22;1.38;;;;;;;25.71;43.28;100052.72;5056627;28;20210;-76
2023/09/13 21:02:44;;;;;;;1.30;0.90;;;;;;;25.77;43.33;100069.22;5063419;28;20234;-76
2023/09/13 21:05:11;;;;;;;8.13;2.05;;;;;;;25.70;43.34;100066.91;5060787;28;20603;-73
2023/09/13 21:07:38;;;;;;;2.97;1.00;;;;;;;25.59;43.20;100044.38;5066009;28;20679;-76
2023/09/13 21:10:05;;;;;;;2.65;1.00;;;;;;;25.23;43.21;99971.72;5070453;28;20202;-75
2023/09/13 21:12:32;;;;;;;6.60;1.25;;;;;;;25.75;43.38;100062.25;5070563;28;20214;-75
2023/09/13 21:14:59;;;;;;;3.25;1.00;;;;;;;25.66;43.09;100060.91;5074080;28;20202;-75
2023/09/13 21:17:25;;;;;;;4.97;1.70;;;;;;;25.62;43.59;100068.13;5074020;28;20214;-74
2023/09/13 21:19:54;;;;;;;2.60;0.90;;;;;;;25.65;43.79;100061.81;5074035;28;20199;-75
2023/09/13 21:22:20;;;;;;;3.83;1.10;;;;;;;25.54;43.84;100069.44;5074046;28;20195;-73
2023/09/13 21:24:48;;;;;;;2.85;1.20;;;;;;;25.49;44.17;100063.44;5073322;28;20207;-75
2023/09/13 21:27:15;;;;;;;4.75;1.02;;;;;;;25.44;43.84;100065.44;5073970;28;20226;-75
2023/09/13 21:29:42;;;;;;;3.25;0.90;;;;;;;25.40;43.71;100069.19;5073928;28;20206;-75
2023/09/13 21:32:09;;;;;;;2.88;1.02;;;;;;;25.26;43.79;100035.28;5073555;28;20568;-75
2023/09/13 21:34:36;;;;;;;1.80;1.17;;;;;;;25.38;43.92;100060.41;5073270;28;20689;-75
2023/09/13 21:37:06;;;;;;;1.75;1.05;;;;;;;25.36;44.04;100057.00;5073626;28;20593;-75
2023/09/13 21:39:32;;;;;;;0.90;0.80;;;;;;;25.19;44.41;100052.44;5073547;28;20662;-76
2023/09/13 21:41:59;;;;;;;3.55;1.45;;;;;;;25.26;44.54;100067.13;5073620;28;20206;-76
2023/09/13 21:44:26;;;;;;;2.35;1.23;;;;;;;25.06;44.47;100038.88;5073542;28;20545;-76
2023/09/13 21:46:53;;;;;;;3.40;0.95;;;;;;;25.21;44.98;100065.63;5073354;28;20984;-76
2023/09/13 21:49:20;;;;;;;2.03;0.85;;;;;;;25.13;44.73;100066.84;5073748;28;20191;-76
2023/09/13 21:51:47;;;;;;;1.00;0.90;;;;;;;25.05;44.87;100057.50;5073208;28;20205;-76
2023/09/13 21:54:15;;;;;;;3.90;1.10;;;;;;;25.11;44.74;100063.38;5038222;28;20195;-75
2023/09/13 21:56:41;;;;;;;1.15;1.00;;;;;;;25.10;45.32;100064.34;5073335;28;20269;-75
2023/09/13 21:59:08;;;;;;;3.75;1.15;;;;;;;25.12;45.11;100069.56;5073394;28;20242;-74
2023/09/13 22:01:35;;;;;;;3.42;1.48;;;;;;;25.14;44.99;100071.25;5072634;28;20245;-74
2023/09/13 22:04:02;;;;;;;3.08;1.02;;;;;;;24.94;45.35;100044.72;5073372;28;20226;-76
2023/09/13 22:06:29;;;;;;;0.98;0.80;;;;;;;25.06;45.27;100070.72;5073075;28;20230;-76
2023/09/13 22:08:56;;;;;;;2.42;0.95;;;;;;;25.01;45.05;100067.38;5073425;28;20282;-76
2023/09/13 22:14:36;;;;;;;2.75;1.48;;;;;;;25.01;46.03;100072.69;5088140;27;20535;-81
2023/09/13 22:17:04;;;;;;;2.05;1.00;;;;;;;24.94;45.67;100071.25;5053143;28;20325;-78
2023/09/13 22:19:31;;;;;;;2.67;1.20;;;;;;;24.93;45.88;100069.53;5053164;28;20216;-78
2023/09/13 22:21:57;;;;;;;2.65;0.93;;;;;;;24.87;46.08;100068.91;5088417;28;20198;-78
2023/09/13 22:24:24;;;;;;;1.42;1.10;;;;;;;24.88;45.99;100071.50;5052989;28;20226;-77
2023/09/13 22:26:51;;;;;;;2.20;1.00;;;;;;;24.89;46.20;100073.25;5088492;28;20289;-79
2023/09/13 22:29:18;;;;;;;1.27;0.73;;;;;;;24.79;46.45;100061.28;5088783;28;20190;-80
2023/09/13 22:31:47;;;;;;;1.40;0.88;;;;;;;24.88;46.52;100060.91;5088174;28;20602;-80
2023/09/13 22:34:14;;;;;;;1.50;0.73;;;;;;;24.86;46.65;100067.22;5088055;28;20202;-79
2023/09/13 22:36:41;;;;;;;2.88;1.35;;;;;;;24.72;46.91;100043.06;5088277;28;20190;-78
2023/09/13 22:39:09;;;;;;;1.50;1.40;;;;;;;24.81;47.37;100072.69;5088120;28;20308;-79
2023/09/13 22:41:36;;;;;;;3.78;1.10;;;;;;;24.73;47.46;100077.44;5087776;28;20216;-75
2023/09/13 22:44:03;;;;;;;2.10;1.30;;;;;;;24.69;48.06;100078.50;5087889;28;20295;-79
2023/09/13 22:46:30;;;;;;;5.47;1.30;;;;;;;24.51;48.49;100060.72;5087990;28;20216;-79
2023/09/13 22:48:58;;;;;;;2.00;0.90;;;;;;;24.54;48.98;100068.56;5087914;28;20273;-80
2023/09/13 22:51:25;;;;;;;3.67;1.05;;;;;;;24.49;49.42;100059.94;5087910;28;20226;-79
2023/09/13 22:53:52;;;;;;;0.73;0.73;;;;;;;24.60;50.58;100071.81;5087638;28;20248;-79
2023/09/13 22:56:19;;;;;;;7.22;1.88;;;;;;;24.44;50.91;100038.91;5052032;28;20273;-79
2023/09/13 22:58:46;;;;;;;3.30;1.10;;;;;;;24.11;51.23;100004.03;5087588;28;20206;-79
2023/09/13 23:01:13;;;;;;;3.72;1.15;;;;;;;24.42;51.75;100050.50;5087599;28;20654;-80
2023/09/13 23:03:40;;;;;;;1.85;0.90;;;;;;;24.48;52.41;100066.16;5087147;28;20295;-79
2023/09/13 23:06:08;;;;;;;2.70;1.25;;;;;;;24.31;52.85;100026.25;5087599;28;20196;-80
2023/09/13 23:08:37;;;;;;;0.90;0.73;;;;;;;24.39;53.36;100058.59;5087504;28;20301;-76
2023/09/13 23:11:04;;;;;;;2.45;0.95;;;;;;;24.41;54.06;100059.38;5064422;28;20210;-79
2023/09/13 23:13:31;;;;;;;2.47;1.05;;;;;;;24.38;54.33;100056.88;5080316;28;20238;-78
2023/09/13 23:16:03;;;;;;;3.08;1.40;;;;;;;24.38;54.85;100059.50;5087434;28;20199;-79
2023/09/13 23:18:30;;;;;;;1.00;1.00;;;;;;;24.36;54.84;100061.38;5087661;28;20248;-78
2023/09/13 23:20:57;;;;;;;5.30;1.27;;;;;;;24.32;54.93;100058.00;5086717;28;20202;-79
2023/09/13 23:23:26;;;;;;;1.83;0.90;;;;;;;24.32;55.13;100055.34;5087466;28;20245;-78
2023/09/13 23:26:00;;;;;;;3.95;1.52;;;;;;;24.25;55.51;100056.53;5073796;28;20721;-79
2023/09/13 23:28:27;;;;;;;4.43;1.92;;;;;;;24.28;55.69;100052.88;5073825;28;20209;-79
2023/09/13 23:31:02;;;;;;;3.45;1.35;;;;;;;24.22;55.97;100061.97;5073013;28;20206;-80
2023/09/13 23:33:29;;;;;;;2.70;1.10;;;;;;;24.19;56.00;100060.28;5068537;28;20214;-80
2023/09/13 23:35:56;;;;;;;4.68;1.65;;;;;;;24.21;56.20;100062.00;5056917;28;20214;-79
2023/09/13 23:38:22;;;;;;;4.18;1.88;;;;;;;24.03;56.39;100045.91;5073785;28;20207;-79
2023/09/13 23:40:51;;;;;;;1.88;1.02;;;;;;;24.14;57.01;100056.97;5037762;28;20207;-75
2023/09/13 23:43:17;;;;;;;1.10;0.80;;;;;;;24.05;57.17;100057.28;5067583;28;20283;-75
2023/09/13 23:45:46;;;;;;;1.58;1.33;;;;;;;23.97;57.73;100056.72;5050733;28;20199;-76
2023/09/13 23:48:13;;;;;;;2.72;1.02;;;;;;;24.02;58.03;100052.13;5057007;28;20655;-79
2023/09/13 23:50:39;;;;;;;3.13;1.60;;;;;;;23.97;58.65;100051.44;5032103;28;20269;-79
2023/09/13 23:53:06;;;;;;;0.80;0.80;;;;;;;23.99;58.99;100046.94;5051669;28;20204;-79
2023/09/13 23:55:32;;;;;;;2.50;1.17;;;;;;;23.95;59.52;100045.34;5069931;28;20569;-79
2023/09/13 23:58:00;;;;;;;1.00;0.80;;;;;;;24.01;59.97;100054.81;5071398;28;20203;-78
